Time;durP1;ratioP1;P1;durP2;ratioP2;P2;SDS_P1;SDS_P2;PMS_P1;PMS_P2;Temp;Humidity;BMP_temperature;BMP_pressure;BME280_temperature;BME280_humidity;BME280_pressure;Samples;Min_cycle;Max_cycle;Signal;HPM_P1;HPM_P2
2022/09/01 00:00:20;;;;;;;;;6.33;6.00;;;;;;;;5121413;28;16376;-76
2022/09/01 00:02:45;;;;;;;;;10.00;9.00;;;;;;;;5103531;28;10890;-76
2022/09/01 00:05:11;;;;;;;;;8.33;7.00;;;;;;;;5121306;28;21522;-76
2022/09/01 00:07:36;;;;;;;;;7.00;7.00;;;;;;;;5119659;28;21448;-76
2022/09/01 00:10:04;;;;;;;;;6.50;6.50;;;;;;;;5124515;27;8954;-76
2022/09/01 00:12:29;;;;;;;;;7.00;7.00;;;;;;;;5130968;27;11367;-76
2022/09/01 00:14:55;;;;;;;;;7.00;7.00;;;;;;;;5120833;28;11363;-76
2022/09/01 00:17:21;;;;;;;;;7.00;7.00;;;;;;;;5121372;28;8911;-76
2022/09/01 00:19:46;;;;;;;;;7.00;7.00;;;;;;;;5121860;28;8768;-76
2022/09/01 00:22:11;;;;;;;;;6.00;6.00;;;;;;;;5121090;28;8810;-76
2022/09/01 00:24:37;;;;;;;;;10.75;9.00;;;;;;;;5120638;28;8905;-76
2022/09/01 00:27:02;;;;;;;;;11.00;11.00;;;;;;;;5120709;28;22443;-76
2022/09/01 00:29:28;;;;;;;;;9.67;9.00;;;;;;;;5120280;28;22556;-76
2022/09/01 00:31:53;;;;;;;;;9.33;7.00;;;;;;;;5120343;28;23507;-77
2022/09/01 00:34:19;;;;;;;;;10.50;9.00;;;;;;;;5120164;28;9445;-76
2022/09/01 00:36:44;;;;;;;;;10.00;8.33;;;;;;;;5120004;28;22620;-76
2022/09/01 00:39:09;;;;;;;;;9.25;7.50;;;;;;;;5103117;27;10359;-76
2022/09/01 00:41:37;;;;;;;;;9.33;7.00;;;;;;;;5122767;27;21879;-75
2022/09/01 00:44:07;;;;;;;;;10.00;8.33;;;;;;;;5141809;27;8778;-75
2022/09/01 00:46:34;;;;;;;;;8.00;8.00;;;;;;;;5141138;27;22628;-76
2022/09/01 00:48:59;;;;;;;;;9.33;8.00;;;;;;;;5141602;27;22653;-76
2022/09/01 00:51:25;;;;;;;;;10.33;7.33;;;;;;;;5141910;27;9287;-76
2022/09/01 00:53:54;;;;;;;;;5.00;5.00;;;;;;;;5139605;27;21360;-76
2022/09/01 00:56:20;;;;;;;;;7.00;7.00;;;;;;;;5141364;27;22144;-76
2022/09/01 00:58:46;;;;;;;;;10.00;9.00;;;;;;;;5141712;27;9162;-76
2022/09/01 01:01:11;;;;;;;;;10.00;9.00;;;;;;;;5140856;27;21501;-76
2022/09/01 01:03:43;;;;;;;;;6.00;6.00;;;;;;;;5141588;27;9545;-76
2022/09/01 01:06:09;;;;;;;;;7.00;6.00;;;;;;;;5140870;27;22513;-76
2022/09/01 01:08:37;;;;;;;;;6.67;6.33;;;;;;;;5140989;27;9370;-76
2022/09/01 01:11:08;;;;;;;;;9.67;7.00;;;;;;;;5141358;27;12552;-77
2022/09/01 01:13:51;;;;;;;;;9.67;7.00;;;;;;;;5140980;27;11462;-76
2022/09/01 01:16:17;;;;;;;;;8.50;8.50;;;;;;;;5141565;27;9843;-77
2022/09/01 01:18:42;;;;;;;;;9.00;7.50;;;;;;;;5141533;27;12704;-76
2022/09/01 01:24:07;;;;;;;;;9.33;9.00;;;;;;;;5140551;27;11324;-76
2022/09/01 01:26:32;;;;;;;;;7.00;7.00;;;;;;;;5121459;27;11363;-76
2022/09/01 01:28:59;;;;;;;;;9.75;9.00;;;;;;;;5119475;28;10262;-76
2022/09/01 01:31:25;;;;;;;;;10.25;8.50;;;;;;;;5119998;28;10536;-76
2022/09/01 01:33:52;;;;;;;;;7.50;7.50;;;;;;;;5119375;28;22749;-76
2022/09/01 01:36:30;;;;;;;;;9.00;9.00;;;;;;;;5119979;28;21415;-76
2022/09/01 01:39:02;;;;;;;;;13.00;7.00;;;;;;;;5120123;28;11439;-76
2022/09/01 01:41:28;;;;;;;;;9.00;8.00;;;;;;;;5140383;27;21708;-75
2022/09/01 01:43:55;;;;;;;;;10.00;7.33;;;;;;;;5140106;27;21435;-75
2022/09/01 01:46:21;;;;;;;;;9.50;9.50;;;;;;;;5141228;27;21400;-76
2022/09/01 01:48:47;;;;;;;;;9.00;9.00;;;;;;;;5143881;27;21449;-76
2022/09/01 01:51:18;;;;;;;;;6.00;6.00;;;;;;;;5143521;27;8951;-76
2022/09/01 01:53:46;;;;;;;;;10.00;7.00;;;;;;;;5142329;27;9419;-76
2022/09/01 01:56:12;;;;;;;;;10.75;10.00;;;;;;;;5140622;27;21693;-75
2022/09/01 01:58:39;;;;;;;;;10.00;9.00;;;;;;;;5141864;27;21677;-76
2022/09/01 02:01:05;;;;;;;;;11.25;9.50;;;;;;;;5141880;27;21638;-76
2022/09/01 02:03:37;;;;;;;;;10.00;7.75;;;;;;;;5142108;27;11710;-77
2022/09/01 02:06:06;;;;;;;;;10.50;10.50;;;;;;;;5140808;27;10795;-76
2022/09/01 02:08:36;;;;;;;;;9.25;7.00;;;;;;;;5142195;27;21758;-76
2022/09/01 02:11:02;;;;;;;;;6.75;6.75;;;;;;;;5142628;27;23602;-76
2022/09/01 02:13:29;;;;;;;;;10.25;9.75;;;;;;;;5142639;27;11760;-76
2022/09/01 02:15:59;;;;;;;;;9.00;7.50;;;;;;;;5138801;27;22043;-75
2022/09/01 02:18:29;;;;;;;;;11.50;10.00;;;;;;;;5141666;27;21389;-76
2022/09/01 02:20:57;;;;;;;;;10.75;9.00;;;;;;;;5138382;27;22465;-76
2022/09/01 02:23:23;;;;;;;;;6.00;6.00;;;;;;;;5140187;27;21753;-77
2022/09/01 02:25:53;;;;;;;;;8.75;7.25;;;;;;;;5141604;27;21464;-75
2022/09/01 02:28:20;;;;;;;;;8.00;8.00;;;;;;;;5139607;27;11782;-76
2022/09/01 02:30:48;;;;;;;;;11.50;9.50;;;;;;;;5141798;27;10356;-75
2022/09/01 02:33:17;;;;;;;;;7.75;6.50;;;;;;;;5141669;27;21654;-76
2022/09/01 02:35:43;;;;;;;;;9.25;8.75;;;;;;;;5141738;27;22621;-76
2022/09/01 02:38:08;;;;;;;;;10.25;10.00;;;;;;;;5141741;27;11453;-75
2022/09/01 02:40:40;;;;;;;;;9.50;8.00;;;;;;;;5141286;27;22352;-77
2022/09/01 02:43:05;;;;;;;;;9.75;9.00;;;;;;;;5140750;27;22295;-76
2022/09/01 02:45:32;;;;;;;;;6.00;6.00;;;;;;;;5123547;27;10031;-75
2022/09/01 02:47:57;;;;;;;;;8.00;8.00;;;;;;;;5141675;27;10544;-77
2022/09/01 02:50:24;;;;;;;;;9.00;9.00;;;;;;;;5141708;27;9619;-77
2022/09/01 02:52:51;;;;;;;;;9.00;9.00;;;;;;;;5141983;27;8805;-76
2022/09/01 02:55:19;;;;;;;;;11.00;8.00;;;;;;;;5119025;27;9877;-76
2022/09/01 02:57:45;;;;;;;;;6.50;6.50;;;;;;;;5140608;27;21487;-76
2022/09/01 03:00:19;;;;;;;;;9.00;8.00;;;;;;;;5141142;27;21954;-77
2022/09/01 03:02:46;;;;;;;;;9.75;8.75;;;;;;;;5141330;27;11452;-77
2022/09/01 03:05:15;;;;;;;;;9.00;9.00;;;;;;;;5141749;27;9722;-77
2022/09/01 03:07:41;;;;;;;;;9.00;9.00;;;;;;;;5123171;27;11085;-76
2022/09/01 03:10:08;;;;;;;;;9.00;9.00;;;;;;;;5123491;27;9972;-76
2022/09/01 03:12:34;;;;;;;;;9.00;9.00;;;;;;;;5141562;27;9775;-77
2022/09/01 03:14:59;;;;;;;;;6.00;6.00;;;;;;;;5141159;27;10005;-75
2022/09/01 03:17:24;;;;;;;;;11.50;9.25;;;;;;;;5141541;27;8833;-75
2022/09/01 03:19:50;;;;;;;;;9.00;9.00;;;;;;;;5140300;27;22563;-76
2022/09/01 03:22:16;;;;;;;;;7.50;7.50;;;;;;;;5141695;27;23241;-76
2022/09/01 03:24:41;;;;;;;;;10.00;10.00;;;;;;;;5141255;27;11544;-76
2022/09/01 03:27:07;;;;;;;;;10.00;8.50;;;;;;;;5122462;27;22590;-76
2022/09/01 03:29:34;;;;;;;;;9.00;9.00;;;;;;;;5141552;27;16659;-76
2022/09/01 03:31:59;;;;;;;;;11.50;10.00;;;;;;;;5140277;27;21597;-75
2022/09/01 03:34:25;;;;;;;;;10.00;8.50;;;;;;;;5140413;27;22469;-75
2022/09/01 03:36:50;;;;;;;;;10.50;8.00;;;;;;;;5141064;27;21476;-76
2022/09/01 03:39:17;;;;;;;;;10.25;10.25;;;;;;;;5140178;27;9717;-76
2022/09/01 03:41:43;;;;;;;;;8.50;8.50;;;;;;;;5140650;27;21449;-76
2022/09/01 03:44:10;;;;;;;;;10.25;10.25;;;;;;;;5140793;27;23272;-76
2022/09/01 03:46:36;;;;;;;;;11.50;9.00;;;;;;;;5137584;27;23654;-76
2022/09/01 03:49:05;;;;;;;;;9.75;9.00;;;;;;;;5141219;27;21394;-77
2022/09/01 03:51:30;;;;;;;;;10.50;10.50;;;;;;;;5140478;27;16668;-77
2022/09/01 03:53:56;;;;;;;;;13.75;10.00;;;;;;;;5140226;27;22277;-76
2022/09/01 03:56:26;;;;;;;;;12.50;12.00;;;;;;;;5140632;27;11702;-76
2022/09/01 03:58:51;;;;;;;;;10.00;10.00;;;;;;;;5140166;27;10611;-76
2022/09/01 04:01:18;;;;;;;;;10.75;9.50;;;;;;;;5141014;27;10600;-77
2022/09/01 04:03:47;;;;;;;;;10.00;10.00;;;;;;;;5140454;27;21484;-76
2022/09/01 04:06:14;;;;;;;;;9.25;9.25;;;;;;;;5139905;27;21839;-76
2022/09/01 04:08:39;;;;;;;;;10.00;10.00;;;;;;;;5139026;27;22290;-76
2022/09/01 04:11:12;;;;;;;;;11.00;10.00;;;;;;;;5140013;27;22189;-76
2022/09/01 04:13:39;;;;;;;;;10.00;9.25;;;;;;;;5137480;27;8946;-76
2022/09/01 04:18:03;;;;;;;;;11.75;10.75;;;;;;;;5139385;27;21761;-74
2022/09/01 04:18:55;;;;;;;;;13.50;11.50;;;;;;;;5136258;27;21589;-75
2022/09/01 04:21:21;;;;;;;;;16.00;11.25;;;;;;;;5139934;27;11747;-77
2022/09/01 04:23:47;;;;;;;;;10.75;10.00;;;;;;;;5140610;27;11423;-74
2022/09/01 04:26:19;;;;;;;;;11.00;10.25;;;;;;;;5140090;27;11415;-74
2022/09/01 04:28:45;;;;;;;;;13.50;11.50;;;;;;;;5139806;27;11534;-75
2022/09/01 04:31:16;;;;;;;;;10.25;10.25;;;;;;;;5119797;27;12071;-76
2022/09/01 04:33:43;;;;;;;;;11.25;10.25;;;;;;;;5121733;27;11998;-75
2022/09/01 04:36:18;;;;;;;;;13.25;11.00;;;;;;;;5139989;27;10079;-75
2022/09/01 04:38:43;;;;;;;;;9.00;9.00;;;;;;;;5138563;27;11509;-75
2022/09/01 04:41:09;;;;;;;;;10.50;10.50;;;;;;;;5139830;27;23331;-75
2022/09/01 04:43:34;;;;;;;;;11.75;10.75;;;;;;;;5139457;27;22272;-75
2022/09/01 04:46:00;;;;;;;;;8.50;8.50;;;;;;;;5139638;27;11364;-75
2022/09/01 04:48:25;;;;;;;;;9.25;9.25;;;;;;;;5137571;27;22128;-75
2022/09/01 04:50:51;;;;;;;;;12.50;11.00;;;;;;;;5139819;27;11363;-75
2022/09/01 04:53:17;;;;;;;;;11.50;11.50;;;;;;;;5139826;27;23283;-75
2022/09/01 04:55:43;;;;;;;;;21.75;18.00;;;;;;;;5140568;27;11986;-74
2022/09/01 04:58:12;;;;;;;;;19.50;14.00;;;;;;;;5140919;27;13500;-75
2022/09/01 05:00:38;;;;;;;;;16.25;14.50;;;;;;;;5122669;27;14110;-76
2022/09/01 05:03:03;;;;;;;;;15.75;13.50;;;;;;;;5140696;27;11426;-74
2022/09/01 05:05:41;;;;;;;;;16.00;14.00;;;;;;;;5140136;27;9721;-75
2022/09/01 05:08:12;;;;;;;;;12.00;12.00;;;;;;;;5139898;27;11884;-74
2022/09/01 05:10:40;;;;;;;;;13.25;12.75;;;;;;;;5140003;27;9995;-74
2022/09/01 05:13:08;;;;;;;;;13.50;12.25;;;;;;;;5139718;27;12867;-73
2022/09/01 05:15:34;;;;;;;;;13.50;12.25;;;;;;;;5128139;27;10107;-73
2022/09/01 05:18:00;;;;;;;;;8.00;8.00;;;;;;;;5141044;27;10211;-73
2022/09/01 05:20:28;;;;;;;;;13.25;13.00;;;;;;;;5141342;27;22748;-73
2022/09/01 05:22:55;;;;;;;;;14.25;13.75;;;;;;;;5140134;27;22584;-73
2022/09/01 05:25:22;;;;;;;;;10.75;9.50;;;;;;;;5130654;27;11979;-74
2022/09/01 05:27:51;;;;;;;;;9.00;9.00;;;;;;;;5119558;28;21476;-73
2022/09/01 05:30:17;;;;;;;;;10.25;10.25;;;;;;;;5120294;28;22634;-74
2022/09/01 05:32:43;;;;;;;;;12.00;10.50;;;;;;;;5119883;28;22243;-74
2022/09/01 05:35:09;;;;;;;;;12.00;10.50;;;;;;;;5120072;28;11499;-76
2022/09/01 05:37:36;;;;;;;;;12.25;11.50;;;;;;;;5120609;28;9852;-72
2022/09/01 05:40:03;;;;;;;;;12.75;11.00;;;;;;;;5129025;27;9584;-74
2022/09/01 05:42:29;;;;;;;;;10.75;8.00;;;;;;;;5122109;27;11051;-74
2022/09/01 05:44:54;;;;;;;;;11.25;10.25;;;;;;;;5139308;27;21394;-74
2022/09/01 05:47:20;;;;;;;;;11.50;11.50;;;;;;;;5140293;27;21386;-74
2022/09/01 05:49:46;;;;;;;;;13.25;11.50;;;;;;;;5141023;27;10922;-74
2022/09/01 05:52:11;;;;;;;;;14.50;14.50;;;;;;;;5121945;27;10231;-73
2022/09/01 05:54:36;;;;;;;;;14.00;13.75;;;;;;;;5122053;27;10823;-73
2022/09/01 05:57:02;;;;;;;;;13.75;11.50;;;;;;;;5139241;27;10521;-74
2022/09/01 05:59:30;;;;;;;;;14.00;13.25;;;;;;;;5120064;27;13550;-75
2022/09/01 06:01:55;;;;;;;;;12.25;12.25;;;;;;;;5119204;27;13609;-75
2022/09/01 06:04:21;;;;;;;;;12.25;11.75;;;;;;;;5139414;27;10408;-75
2022/09/01 06:06:55;;;;;;;;;15.50;14.75;;;;;;;;5120280;27;8957;-76
2022/09/01 06:09:22;;;;;;;;;12.25;10.75;;;;;;;;5139114;27;10629;-76
2022/09/01 06:11:48;;;;;;;;;12.50;11.25;;;;;;;;5120389;27;13720;-77
2022/09/01 06:14:16;;;;;;;;;14.00;12.00;;;;;;;;5137963;27;9902;-77
2022/09/01 06:16:42;;;;;;;;;14.75;12.00;;;;;;;;5138598;27;12103;-76
2022/09/01 06:19:09;;;;;;;;;13.25;12.50;;;;;;;;5137448;27;10767;-77
2022/09/01 06:21:35;;;;;;;;;14.75;12.50;;;;;;;;5138607;27;11595;-76
2022/09/01 06:24:00;;;;;;;;;13.00;13.00;;;;;;;;5139146;27;9725;-77
2022/09/01 06:26:27;;;;;;;;;15.50;14.75;;;;;;;;5132499;27;13049;-78
2022/09/01 06:29:03;;;;;;;;;11.00;11.00;;;;;;;;5101259;28;14541;-79
2022/09/01 06:31:33;;;;;;;;;14.00;12.75;;;;;;;;5120008;27;11411;-78
2022/09/01 06:34:00;;;;;;;;;13.25;13.25;;;;;;;;5102392;28;13674;-78
2022/09/01 06:36:25;;;;;;;;;14.00;11.50;;;;;;;;5101820;28;10678;-78
2022/09/01 06:38:51;;;;;;;;;15.50;13.00;;;;;;;;5103922;28;14761;-79
2022/09/01 06:41:18;;;;;;;;;15.00;13.75;;;;;;;;5141510;27;11616;-76
2022/09/01 06:43:44;;;;;;;;;13.50;13.50;;;;;;;;5142619;27;9712;-77
2022/09/01 06:46:10;;;;;;;;;14.75;13.50;;;;;;;;5143576;27;12893;-77
2022/09/01 06:48:38;;;;;;;;;30.50;27.75;;;;;;;;5143711;27;9784;-77
2022/09/01 06:51:04;;;;;;;;;26.00;25.50;;;;;;;;5143423;27;13649;-77
2022/09/01 06:53:30;;;;;;;;;25.50;23.75;;;;;;;;5141904;27;14422;-78
2022/09/01 06:55:56;;;;;;;;;66.00;52.50;;;;;;;;5142490;27;11979;-78
2022/09/01 06:58:21;;;;;;;;;50.25;42.75;;;;;;;;5124396;27;15333;-78
2022/09/01 07:00:48;;;;;;;;;55.75;44.00;;;;;;;;5143131;27;13249;-78
2022/09/01 07:03:14;;;;;;;;;23.50;21.50;;;;;;;;5142711;27;11600;-81
2022/09/01 07:05:40;;;;;;;;;8.50;8.50;;;;;;;;5143269;27;13260;-81
2022/09/01 07:08:08;;;;;;;;;10.33;9.33;;;;;;;;5142842;27;23547;-80
2022/09/01 07:10:38;;;;;;;;;15.00;13.25;;;;;;;;5141229;27;22670;-81
2022/09/01 07:13:03;;;;;;;;;10.50;10.50;;;;;;;;5142081;27;22739;-81
2022/09/01 07:15:29;;;;;;;;;12.50;12.50;;;;;;;;5143163;27;12427;-81
2022/09/01 07:17:57;;;;;;;;;8.00;8.00;;;;;;;;5143314;27;8789;-80
2022/09/01 07:20:24;;;;;;;;;10.00;10.00;;;;;;;;5142048;27;22528;-79
2022/09/01 07:22:50;;;;;;;;;10.75;10.75;;;;;;;;5142679;27;22445;-80
2022/09/01 07:25:16;;;;;;;;;8.67;8.00;;;;;;;;5142961;27;9629;-80
2022/09/01 07:27:48;;;;;;;;;6.00;5.33;;;;;;;;5142377;27;22258;-81
2022/09/01 07:30:14;;;;;;;;;6.67;6.67;;;;;;;;5140502;27;11770;-79
2022/09/01 07:32:43;;;;;;;;;7.00;7.00;;;;;;;;5143312;27;10365;-79
2022/09/01 07:35:09;;;;;;;;;8.67;7.00;;;;;;;;5142487;27;12010;-79
2022/09/01 07:37:37;;;;;;;;;14.33;12.33;;;;;;;;5143042;27;9354;-79
2022/09/01 07:40:06;;;;;;;;;15.50;13.50;;;;;;;;5142185;27;22684;-78
2022/09/01 07:42:32;;;;;;;;;13.00;10.00;;;;;;;;5142642;27;11472;-78
2022/09/01 07:44:58;;;;;;;;;9.67;9.00;;;;;;;;5140985;27;12921;-79
2022/09/01 07:47:23;;;;;;;;;8.33;8.33;;;;;;;;5141945;27;23406;-79
2022/09/01 07:49:48;;;;;;;;;5.00;5.00;;;;;;;;5142111;27;11440;-79
2022/09/01 07:52:14;;;;;;;;;4.33;4.33;;;;;;;;5142371;27;13224;-79
2022/09/01 07:54:39;;;;;;;;;3.00;3.00;;;;;;;;5142866;27;11282;-83
2022/09/01 07:57:04;;;;;;;;;3.33;3.33;;;;;;;;5143084;27;11321;-83
2022/09/01 07:59:30;;;;;;;;;4.00;4.00;;;;;;;;5142892;27;8778;-82
2022/09/01 08:01:56;;;;;;;;;3.00;3.00;;;;;;;;5141934;27;12339;-83
2022/09/01 08:04:21;;;;;;;;;5.00;4.00;;;;;;;;5141930;27;8821;-82
2022/09/01 08:06:47;;;;;;;;;5.33;5.33;;;;;;;;5142643;27;9408;-82
2022/09/01 08:09:13;;;;;;;;;5.33;5.00;;;;;;;;5142367;27;11642;-82
2022/09/01 08:11:38;;;;;;;;;5.00;4.00;;;;;;;;5142308;27;8770;-83
2022/09/01 08:14:03;;;;;;;;;4.00;4.00;;;;;;;;5142002;27;9616;-83
2022/09/01 08:16:29;;;;;;;;;5.33;4.00;;;;;;;;5142301;27;8759;-83
2022/09/01 08:18:55;;;;;;;;;3.00;3.00;;;;;;;;5122328;27;10672;-83
2022/09/01 08:21:22;;;;;;;;;4.33;4.33;;;;;;;;5142409;27;10341;-83
2022/09/01 08:23:47;;;;;;;;;4.00;4.00;;;;;;;;5122993;27;13625;-82
2022/09/01 08:26:14;;;;;;;;;3.00;3.00;;;;;;;;5141729;27;8798;-83
2022/09/01 08:28:39;;;;;;;;;4.00;3.75;;;;;;;;5141999;27;8925;-83
2022/09/01 08:31:09;;;;;;;;;2.00;2.00;;;;;;;;5142583;27;11301;-83
2022/09/01 08:33:35;;;;;;;;;3.25;3.25;;;;;;;;5141319;27;11352;-83
2022/09/01 08:36:00;;;;;;;;;4.00;4.00;;;;;;;;5142183;27;11502;-83
2022/09/01 08:38:26;;;;;;;;;5.00;4.00;;;;;;;;5142143;27;11844;-82
2022/09/01 08:40:53;;;;;;;;;5.00;4.00;;;;;;;;5142048;27;8774;-81
2022/09/01 08:43:18;;;;;;;;;2.50;2.50;;;;;;;;5142066;27;8782;-81
2022/09/01 08:45:54;;;;;;;;;3.00;3.00;;;;;;;;5141685;27;12249;-82
2022/09/01 08:48:38;;;;;;;;;3.75;2.75;;;;;;;;5141364;27;11989;-82
2022/09/01 08:51:26;;;;;;;;;4.00;4.00;;;;;;;;5141171;27;10708;-83
2022/09/01 08:54:09;;;;;;;;;3.25;3.25;;;;;;;;5126535;27;11687;-82
2022/09/01 08:56:36;;;;;;;;;3.40;3.40;;;;;;;;5142218;27;11670;-81
2022/09/01 08:59:01;;;;;;;;;3.20;3.20;;;;;;;;5123285;27;9168;-83
2022/09/01 09:01:37;;;;;;;;;3.00;3.00;;;;;;;;5141881;27;8874;-83
2022/09/01 09:04:11;;;;;;;;;1.40;1.40;;;;;;;;5141563;27;8790;-81
2022/09/01 09:06:39;;;;;;;;;3.00;3.00;;;;;;;;5141592;27;11932;-79
2022/09/01 09:09:06;;;;;;;;;2.00;2.00;;;;;;;;5141099;27;12176;-77
2022/09/01 09:11:50;;;;;;;;;3.20;2.60;;;;;;;;5141048;27;8937;-77
2022/09/01 09:14:27;;;;;;;;;4.00;2.00;;;;;;;;5142084;27;11741;-89
2022/09/01 09:16:53;;;;;;;;;3.00;2.40;;;;;;;;5141281;27;11599;-86
2022/09/01 09:19:29;;;;;;;;;2.40;2.40;;;;;;;;5141309;27;11682;-85
2022/09/01 09:21:55;;;;;;;;;3.20;3.20;;;;;;;;5141998;27;9130;-85
2022/09/01 09:24:21;;;;;;;;;4.00;4.00;;;;;;;;5122322;27;14281;-85
2022/09/01 09:26:47;;;;;;;;;3.00;3.00;;;;;;;;5141457;27;11417;-81
2022/09/01 09:29:12;;;;;;;;;3.00;3.00;;;;;;;;5140934;27;8797;-83
2022/09/01 09:31:47;;;;;;;;;3.00;3.00;;;;;;;;5141426;27;8774;-80
2022/09/01 09:34:33;;;;;;;;;4.20;3.40;;;;;;;;5140939;27;8778;-80
2022/09/01 09:37:17;;;;;;;;;4.00;4.00;;;;;;;;5140561;27;11999;-85
2022/09/01 09:39:43;;;;;;;;;4.60;4.00;;;;;;;;5140967;27;11226;-85
2022/09/01 09:42:12;;;;;;;;;3.25;3.25;;;;;;;;5140810;27;8824;-85
2022/09/01 09:44:43;;;;;;;;;2.60;2.60;;;;;;;;5140579;27;11944;-82
2022/09/01 09:47:09;;;;;;;;;3.60;3.60;;;;;;;;5121330;27;11570;-81
2022/09/01 09:49:35;;;;;;;;;4.20;4.20;;;;;;;;5141290;27;8899;-85
2022/09/01 09:52:00;;;;;;;;;3.25;3.25;;;;;;;;5141322;27;11548;-84
2022/09/01 09:54:27;;;;;;;;;3.00;3.00;;;;;;;;5140779;27;11307;-82
2022/09/01 09:57:05;;;;;;;;;3.80;3.00;;;;;;;;5140683;27;9030;-87
2022/09/01 09:59:52;;;;;;;;;4.40;4.40;;;;;;;;5141055;27;9471;-81
2022/09/01 10:02:27;;;;;;;;;3.80;3.80;;;;;;;;5139365;27;12225;-80
2022/09/01 10:04:52;;;;;;;;;3.20;3.20;;;;;;;;5140402;27;11730;-81
2022/09/01 10:07:47;;;;;;;;;4.00;4.00;;;;;;;;5142631;27;9575;-80
2022/09/01 10:10:39;;;;;;;;;4.00;4.00;;;;;;;;5039769;28;11398;-78
2022/09/01 10:13:07;;;;;;;;;5.60;5.20;;;;;;;;5039507;28;8813;-77
2022/09/01 10:15:32;;;;;;;;;5.60;5.60;;;;;;;;5040252;28;11552;-84
2022/09/01 10:18:01;;;;;;;;;5.00;5.00;;;;;;;;5039657;28;9250;-85
2022/09/01 10:20:26;;;;;;;;;5.00;5.00;;;;;;;;5075847;27;8778;-85
2022/09/01 10:22:52;;;;;;;;;4.00;4.00;;;;;;;;5144219;27;8790;-85
2022/09/01 10:25:25;;;;;;;;;4.25;3.75;;;;;;;;5143358;27;8871;-85
2022/09/01 10:27:54;;;;;;;;;4.00;4.00;;;;;;;;5143877;27;10901;-85
2022/09/01 10:30:20;;;;;;;;;3.40;3.40;;;;;;;;5144482;27;10598;-85
2022/09/01 10:32:49;;;;;;;;;4.50;4.50;;;;;;;;5143965;27;11592;-85
2022/09/01 10:35:24;;;;;;;;;6.00;6.00;;;;;;;;5143839;27;12899;-85
2022/09/01 10:37:50;;;;;;;;;5.20;4.20;;;;;;;;5144209;27;11454;-86
2022/09/01 10:40:27;;;;;;;;;4.80;4.80;;;;;;;;5143701;27;11398;-86
2022/09/01 10:42:55;;;;;;;;;5.40;5.40;;;;;;;;5143760;27;11407;-86
2022/09/01 10:45:30;;;;;;;;;7.00;7.00;;;;;;;;5144001;27;11661;-86
2022/09/01 10:48:18;;;;;;;;;6.20;6.20;;;;;;;;5144054;27;11892;-86
2022/09/01 10:50:45;;;;;;;;;6.40;6.40;;;;;;;;5143717;27;11387;-86
2022/09/01 10:53:31;;;;;;;;;7.25;7.25;;;;;;;;5125359;27;9440;-86
2022/09/01 10:56:16;;;;;;;;;6.25;6.25;;;;;;;;5143617;27;11668;-83
2022/09/01 10:58:42;;;;;;;;;6.75;6.75;;;;;;;;5142824;27;11544;-83
2022/09/01 11:01:07;;;;;;;;;8.67;7.00;;;;;;;;5143303;27;8892;-85
2022/09/01 11:03:37;;;;;;;;;7.33;7.00;;;;;;;;5143332;27;11638;-84
2022/09/01 11:06:06;;;;;;;;;6.75;6.75;;;;;;;;5124738;27;9219;-84
2022/09/01 11:08:31;;;;;;;;;8.50;7.25;;;;;;;;5143531;27;11432;-84
2022/09/01 11:11:05;;;;;;;;;6.00;6.00;;;;;;;;5143934;27;10284;-84
2022/09/01 11:13:36;;;;;;;;;6.25;6.25;;;;;;;;5143434;27;13125;-85
2022/09/01 11:16:20;;;;;;;;;8.75;8.75;;;;;;;;5143825;27;10272;-85
2022/09/01 11:18:46;;;;;;;;;5.00;5.00;;;;;;;;5142557;27;10884;-83
2022/09/01 11:21:28;;;;;;;;;7.00;6.75;;;;;;;;5143264;27;11377;-86
2022/09/01 11:24:12;;;;;;;;;7.00;7.00;;;;;;;;5142081;27;11377;-85
2022/09/01 11:26:44;;;;;;;;;8.25;7.00;;;;;;;;5142993;27;10048;-85
2022/09/01 11:29:29;;;;;;;;;8.25;8.25;;;;;;;;5143622;27;8862;-85
2022/09/01 11:31:55;;;;;;;;;6.00;6.00;;;;;;;;5143125;27;8937;-84
2022/09/01 11:34:22;;;;;;;;;8.00;7.00;;;;;;;;5124157;27;13567;-85
2022/09/01 11:36:57;;;;;;;;;4.00;4.00;;;;;;;;5140521;27;8848;-85
2022/09/01 11:39:28;;;;;;;;;6.25;6.00;;;;;;;;5142521;27;9522;-86
2022/09/01 11:41:56;;;;;;;;;10.50;9.75;;;;;;;;5142370;27;10797;-84
2022/09/01 11:44:25;;;;;;;;;5.50;4.25;;;;;;;;5142014;27;21461;-84
2022/09/01 11:46:51;;;;;;;;;4.00;4.00;;;;;;;;5142369;27;21648;-84
2022/09/01 11:49:29;;;;;;;;;2.00;1.00;;;;;;;;5142565;27;11429;-86
2022/09/01 11:51:56;;;;;;;;;4.00;4.00;;;;;;;;5143318;27;8900;-85
2022/09/01 11:54:22;;;;;;;;;4.75;4.75;;;;;;;;5141704;27;9349;-84
2022/09/01 11:56:47;;;;;;;;;2.67;2.67;;;;;;;;5142444;27;9534;-84
2022/09/01 11:59:12;;;;;;;;;0.33;0.33;;;;;;;;5142409;27;12091;-85
2022/09/01 12:01:38;;;;;;;;;1.33;1.00;;;;;;;;5142242;27;11285;-85
2022/09/01 12:04:17;;;;;;;;;2.00;2.00;;;;;;;;5142751;27;11281;-84
2022/09/01 12:06:50;;;;;;;;;2.50;2.00;;;;;;;;5142260;27;10421;-85
2022/09/01 12:09:15;;;;;;;;;0.00;0.00;;;;;;;;5142989;27;8781;-85
2022/09/01 12:11:41;;;;;;;;;1.33;1.33;;;;;;;;5141683;27;10604;-86
2022/09/01 12:14:10;;;;;;;;;1.00;1.00;;;;;;;;5142756;27;11292;-83
2022/09/01 12:16:38;;;;;;;;;1.75;1.75;;;;;;;;5142015;27;8973;-84
2022/09/01 12:19:05;;;;;;;;;2.75;1.00;;;;;;;;5142992;27;8794;-84
2022/09/01 12:21:30;;;;;;;;;0.00;0.00;;;;;;;;5142401;27;11371;-83
2022/09/01 12:24:16;;;;;;;;;0.00;0.00;;;;;;;;5141817;27;11679;-83
2022/09/01 12:26:42;;;;;;;;;1.25;1.25;;;;;;;;5142282;27;8782;-83
2022/09/01 12:29:08;;;;;;;;;2.67;2.00;;;;;;;;5140939;27;11334;-83
2022/09/01 12:31:39;;;;;;;;;1.00;1.00;;;;;;;;5141697;27;11353;-79
2022/09/01 12:34:22;;;;;;;;;0.00;0.00;;;;;;;;5142055;27;11477;-82
2022/09/01 12:37:00;;;;;;;;;0.00;0.00;;;;;;;;5141690;27;8778;-83
2022/09/01 12:39:31;;;;;;;;;0.25;0.00;;;;;;;;5141954;27;8809;-80
2022/09/01 12:42:01;;;;;;;;;1.25;0.00;;;;;;;;5141857;27;9617;-78
2022/09/01 12:44:29;;;;;;;;;0.00;0.00;;;;;;;;5142070;27;8783;-80
2022/09/01 12:46:55;;;;;;;;;0.00;0.00;;;;;;;;5142167;27;9177;-83
2022/09/01 12:49:25;;;;;;;;;0.00;0.00;;;;;;;;5142034;27;8987;-83
2022/09/01 12:52:09;;;;;;;;;0.25;0.00;;;;;;;;5138711;27;8848;-82
2022/09/01 12:54:35;;;;;;;;;0.75;0.75;;;;;;;;5138529;27;8896;-78
2022/09/01 12:57:00;;;;;;;;;0.00;0.00;;;;;;;;5141756;27;9699;-79
2022/09/01 12:59:25;;;;;;;;;0.00;0.00;;;;;;;;5123066;27;9378;-80
2022/09/01 13:01:51;;;;;;;;;2.33;1.00;;;;;;;;5141754;27;8786;-79
2022/09/01 13:04:19;;;;;;;;;1.00;1.00;;;;;;;;5122187;27;13410;-78
2022/09/01 13:06:45;;;;;;;;;0.25;0.25;;;;;;;;5141206;27;9086;-78
2022/09/01 13:09:10;;;;;;;;;0.00;0.00;;;;;;;;5122391;27;12749;-79
2022/09/01 13:11:36;;;;;;;;;0.00;0.00;;;;;;;;5141319;27;8790;-81
2022/09/01 13:14:01;;;;;;;;;3.00;3.00;;;;;;;;5141840;27;8762;-79
2022/09/01 13:16:27;;;;;;;;;1.00;1.00;;;;;;;;5140254;27;8858;-79
2022/09/01 13:18:52;;;;;;;;;2.00;0.00;;;;;;;;5139831;27;8870;-80
2022/09/01 13:21:17;;;;;;;;;1.00;1.00;;;;;;;;5139583;27;8833;-79
2022/09/01 13:23:43;;;;;;;;;0.00;0.00;;;;;;;;5138088;27;8794;-78
2022/09/01 13:26:10;;;;;;;;;1.00;1.00;;;;;;;;5117105;27;8885;-77
2022/09/01 13:28:35;;;;;;;;;0.00;0.00;;;;;;;;5140662;27;8866;-78
2022/09/01 13:31:04;;;;;;;;;1.00;1.00;;;;;;;;5141463;27;8778;-78
2022/09/01 13:33:30;;;;;;;;;1.00;1.00;;;;;;;;5141119;27;8794;-77
2022/09/01 13:35:55;;;;;;;;;0.75;0.75;;;;;;;;5141435;27;8782;-78
2022/09/01 13:38:21;;;;;;;;;0.00;0.00;;;;;;;;5141100;27;12463;-77
2022/09/01 13:40:47;;;;;;;;;1.00;1.00;;;;;;;;5142158;27;8898;-76
2022/09/01 13:43:13;;;;;;;;;0.00;0.00;;;;;;;;5143905;27;8880;-76
2022/09/01 13:45:39;;;;;;;;;1.00;1.00;;;;;;;;5143097;27;11353;-78
2022/09/01 13:48:04;;;;;;;;;3.00;1.00;;;;;;;;5144389;27;9603;-77
2022/09/01 13:50:30;;;;;;;;;3.00;1.00;;;;;;;;5144678;27;8962;-76
2022/09/01 13:52:55;;;;;;;;;1.00;0.00;;;;;;;;5144629;27;8909;-76
2022/09/01 13:55:23;;;;;;;;;1.00;1.00;;;;;;;;5134682;27;9505;-76
2022/09/01 13:57:49;;;;;;;;;1.00;1.00;;;;;;;;5141726;27;8869;-76
2022/09/01 14:00:16;;;;;;;;;2.00;2.00;;;;;;;;5143942;27;8782;-75
2022/09/01 14:02:48;;;;;;;;;2.75;1.00;;;;;;;;5143820;27;10366;-75
2022/09/01 14:05:17;;;;;;;;;0.00;0.00;;;;;;;;5141462;27;9714;-75
2022/09/01 14:07:43;;;;;;;;;1.00;1.00;;;;;;;;5143476;27;13847;-76
2022/09/01 14:10:08;;;;;;;;;1.33;1.00;;;;;;;;5124735;27;8822;-75
2022/09/01 14:12:33;;;;;;;;;2.00;2.00;;;;;;;;5143432;27;9538;-75
2022/09/01 14:14:59;;;;;;;;;1.00;1.00;;;;;;;;5142938;27;10520;-75
2022/09/01 14:17:25;;;;;;;;;3.00;2.00;;;;;;;;5144510;27;9588;-75
2022/09/01 14:19:50;;;;;;;;;3.00;2.67;;;;;;;;5143447;27;9024;-75
2022/09/01 14:22:15;;;;;;;;;3.00;3.00;;;;;;;;5125005;27;11444;-76
2022/09/01 14:24:40;;;;;;;;;1.00;1.00;;;;;;;;5143275;27;9554;-76
2022/09/01 14:27:06;;;;;;;;;2.67;2.67;;;;;;;;5125152;27;8952;-75
2022/09/01 14:29:31;;;;;;;;;2.33;2.33;;;;;;;;5143607;27;11334;-75
2022/09/01 14:31:57;;;;;;;;;1.00;1.00;;;;;;;;5143485;27;10042;-75
2022/09/01 14:34:26;;;;;;;;;1.67;0.67;;;;;;;;5124189;27;13581;-75
2022/09/01 14:36:53;;;;;;;;;2.00;2.00;;;;;;;;5143602;27;10493;-76
2022/09/01 14:39:18;;;;;;;;;0.00;0.00;;;;;;;;5141734;27;11425;-76
2022/09/01 14:41:44;;;;;;;;;0.33;0.33;;;;;;;;5143945;27;8810;-75
2022/09/01 14:44:09;;;;;;;;;1.00;0.00;;;;;;;;5144036;27;9112;-75
2022/09/01 14:46:35;;;;;;;;;1.00;0.00;;;;;;;;5143777;27;11273;-76
2022/09/01 14:49:01;;;;;;;;;0.00;0.00;;;;;;;;5143728;27;8782;-75